Time;durP1;ratioP1;P1;durP2;ratioP2;P2;SDS_P1;SDS_P2;PMS_P1;PMS_P2;Temp;Humidity;BMP_temperature;BMP_pressure;BME280_temperature;BME280_humidity;BME280_pressure;Samples;Min_cycle;Max_cycle;Signal;HPM_P1;HPM_P2
2021/11/06 00:01:44;;;;;;;2.80;2.00;;;;;;;3.56;93.21;100605.72;2321393;66;23090;-78
2021/11/06 00:04:47;;;;;;;2.54;2.29;;;;;;;3.53;93.04;100598.78;2317036;69;20299;-78
2021/11/06 00:07:50;;;;;;;2.34;2.14;;;;;;;3.53;93.14;100606.47;2322182;69;20296;-78
2021/11/06 00:10:52;;;;;;;2.86;2.20;;;;;;;3.57;93.21;100610.06;2322340;69;20315;-78
2021/11/06 00:13:55;;;;;;;3.38;1.98;;;;;;;3.56;93.09;100605.72;2321726;68;20312;-78
2021/11/06 00:16:58;;;;;;;4.34;1.98;;;;;;;3.54;93.17;100600.53;2320756;66;23959;-78
2021/11/06 00:20:01;;;;;;;4.34;2.05;;;;;;;3.54;93.20;100594.53;2317435;69;20860;-78
2021/11/06 00:23:04;;;;;;;3.19;1.58;;;;;;;3.52;93.07;100597.03;2323533;68;20431;-78
2021/11/06 00:26:06;;;;;;;3.16;1.80;;;;;;;3.50;93.11;100596.09;2322563;69;20312;-78
2021/11/06 00:29:09;;;;;;;5.07;2.09;;;;;;;3.48;92.97;100594.28;2320653;69;21333;-78
2021/11/06 00:35:54;;;;;;;2.41;1.96;;;;;;;3.50;93.37;100603.78;2312553;69;20323;-78
2021/11/06 00:38:57;;;;;;;3.91;2.15;;;;;;;3.57;93.56;100603.22;2303772;69;20311;-77
2021/11/06 00:42:00;;;;;;;2.35;2.04;;;;;;;3.62;93.59;100604.31;2309744;69;20309;-78
2021/11/06 00:45:04;;;;;;;2.44;2.22;;;;;;;3.64;93.55;100596.69;2309186;69;20320;-78
2021/11/06 00:48:06;;;;;;;5.29;1.98;;;;;;;3.66;93.58;100594.19;2307852;69;20372;-77
2021/11/06 00:51:09;;;;;;;5.89;2.50;;;;;;;3.70;93.74;100601.19;2309117;69;20286;-77
2021/11/06 00:54:12;;;;;;;3.30;2.41;;;;;;;3.71;93.71;100596.13;2309607;69;20330;-77
2021/11/06 00:57:15;;;;;;;3.80;2.40;;;;;;;3.71;93.50;100600.38;2308143;69;20388;-77
2021/11/06 01:00:19;;;;;;;4.14;2.51;;;;;;;3.70;93.33;100594.38;2307192;69;20310;-77
2021/11/06 01:03:22;;;;;;;7.88;2.55;;;;;;;3.71;93.20;100592.69;2309010;69;20287;-77
2021/11/06 01:06:24;;;;;;;5.51;2.67;;;;;;;3.73;93.40;100584.22;2307577;69;20294;-77
2021/11/06 01:09:27;;;;;;;4.16;2.80;;;;;;;3.78;93.49;100599.84;2308770;69;20364;-78
2021/11/06 01:12:30;;;;;;;5.04;2.44;;;;;;;3.80;93.45;100598.22;2307903;69;20406;-77
2021/11/06 01:15:33;;;;;;;6.15;2.84;;;;;;;3.81;93.55;100602.53;2305693;66;22743;-77
2021/11/06 01:18:35;;;;;;;4.93;2.60;;;;;;;3.85;93.63;100601.84;2309865;69;20282;-77
2021/11/06 01:21:39;;;;;;;6.07;2.41;;;;;;;3.86;93.45;100599.34;2307557;69;20866;-77
2021/11/06 01:24:42;;;;;;;5.89;2.59;;;;;;;3.86;93.56;100604.47;2309088;69;20413;-77
2021/11/06 01:27:45;;;;;;;6.89;3.11;;;;;;;3.87;93.48;100611.38;2315808;69;20353;-78
2021/11/06 01:30:48;;;;;;;3.26;2.39;;;;;;;3.84;93.35;100605.22;2314797;66;20911;-77
2021/11/06 01:33:51;;;;;;;5.54;3.16;;;;;;;3.86;93.57;100616.44;2310033;69;20821;-77
2021/11/06 01:36:53;;;;;;;8.05;2.79;;;;;;;3.90;93.67;100608.91;2314954;69;20315;-77
2021/11/06 01:39:56;;;;;;;3.85;2.53;;;;;;;3.93;93.62;100605.59;2314280;69;20377;-77
2021/11/06 01:42:59;;;;;;;5.41;2.16;;;;;;;3.94;93.50;100599.66;2314789;69;20345;-77
2021/11/06 01:46:04;;;;;;;4.45;2.69;;;;;;;3.94;93.39;100605.66;2315167;67;22716;-77
2021/11/06 01:49:07;;;;;;;5.95;2.59;;;;;;;3.87;93.19;100606.22;2316915;69;20712;-77
2021/11/06 01:52:10;;;;;;;4.18;2.78;;;;;;;3.86;93.30;100591.63;2315785;69;20833;-77
2021/11/06 01:55:14;;;;;;;6.74;2.80;;;;;;;3.86;93.46;100601.03;2314822;69;20332;-77
2021/11/06 01:58:19;;;;;;;5.66;2.53;;;;;;;3.90;93.59;100597.78;2314685;69;20297;-77
2021/11/06 02:01:22;;;;;;;9.31;3.30;;;;;;;3.93;93.60;100591.06;2314658;67;25649;-77
2021/11/06 02:04:25;;;;;;;5.30;2.78;;;;;;;3.93;93.43;100588.50;2315836;69;20293;-77
2021/11/06 02:07:27;;;;;;;4.84;2.41;;;;;;;3.87;93.41;100580.53;2324819;68;20287;-78
2021/11/06 02:10:31;;;;;;;4.45;2.36;;;;;;;3.89;93.36;100578.03;2329222;68;20667;-79
2021/11/06 02:13:33;;;;;;;7.57;2.47;;;;;;;3.89;93.39;100581.47;2334026;68;20948;-79
2021/11/06 02:16:37;;;;;;;4.14;2.33;;;;;;;3.95;93.56;100586.00;2327870;68;20283;-79
2021/11/06 02:19:42;;;;;;;3.86;2.80;;;;;;;3.96;93.60;100589.47;2328843;68;20291;-79
2021/11/06 02:22:45;;;;;;;3.08;2.29;;;;;;;3.99;93.61;100587.88;2328743;68;20319;-79
2021/11/06 02:25:47;;;;;;;5.72;2.51;;;;;;;4.00;93.58;100586.19;2329600;68;20309;-79
2021/11/06 02:29:11;;;;;;;4.68;2.21;;;;;;;4.00;93.73;100584.50;2328869;68;20985;-79
2021/11/06 02:32:13;;;;;;;2.85;2.34;;;;;;;4.03;93.71;100584.63;2319516;68;20356;-79
2021/11/06 02:35:17;;;;;;;4.63;2.39;;;;;;;4.04;93.64;100577.78;2330388;68;20344;-79
2021/11/06 02:38:25;;;;;;;5.39;2.28;;;;;;;3.98;93.44;100578.44;2327914;68;20367;-79
2021/11/06 02:41:30;;;;;;;3.59;2.30;;;;;;;3.94;93.36;100568.81;2315230;68;20295;-79
2021/11/06 02:44:41;;;;;;;3.40;2.00;;;;;;;3.93;93.16;100574.75;2327116;68;20283;-79
2021/11/06 02:47:44;;;;;;;3.63;2.29;;;;;;;3.86;92.93;100575.34;2317970;68;20366;-79
2021/11/06 02:50:50;;;;;;;3.60;1.98;;;;;;;3.82;93.04;100574.34;2329721;68;20306;-79
2021/11/06 02:53:58;;;;;;;3.76;2.21;;;;;;;3.75;92.91;100572.31;2324868;68;20275;-79
2021/11/06 02:57:03;;;;;;;5.64;1.98;;;;;;;3.72;93.03;100581.59;2324300;68;20360;-79
2021/11/06 03:00:19;;;;;;;3.76;2.09;;;;;;;3.68;92.99;100572.88;2328127;68;20299;-79
2021/11/06 03:03:25;;;;;;;3.53;2.06;;;;;;;3.59;92.89;100578.53;2328902;68;20308;-79
2021/11/06 03:06:34;;;;;;;2.95;1.88;;;;;;;3.56;92.96;100572.34;2320707;68;20283;-79
2021/11/06 03:09:43;;;;;;;2.50;1.83;;;;;;;3.54;93.05;100572.28;2319787;68;20324;-79
2021/11/06 03:12:56;;;;;;;3.10;1.96;;;;;;;3.49;92.91;100568.66;2330264;68;20722;-79
2021/11/06 03:15:59;;;;;;;5.07;2.34;;;;;;;3.45;92.96;100579.63;2325768;68;20430;-79
2021/11/06 03:19:07;;;;;;;3.91;1.94;;;;;;;3.33;92.61;100579.94;2315805;68;20707;-79
2021/11/06 03:22:13;;;;;;;5.82;2.38;;;;;;;3.30;92.72;100574.69;2330455;68;20307;-79
2021/11/06 03:25:20;;;;;;;5.03;2.30;;;;;;;3.29;92.76;100577.19;2315600;68;20797;-79
2021/11/06 03:28:36;;;;;;;3.90;2.03;;;;;;;3.25;92.99;100576.19;2329397;68;20529;-79
2021/11/06 03:31:41;;;;;;;4.69;1.81;;;;;;;3.23;93.07;100580.38;2329681;68;20316;-79
2021/11/06 03:34:49;;;;;;;4.74;1.99;;;;;;;3.19;92.91;100580.16;2320079;68;20307;-79
2021/11/06 03:38:01;;;;;;;6.64;2.22;;;;;;;3.16;92.75;100590.28;2330004;68;20287;-79
2021/11/06 03:41:13;;;;;;;4.28;2.11;;;;;;;3.06;92.46;100586.44;2327341;68;20377;-79
2021/11/06 03:44:18;;;;;;;5.00;2.47;;;;;;;3.00;92.36;100594.72;2329452;68;21454;-79
2021/11/06 03:47:23;;;;;;;2.33;2.01;;;;;;;2.94;92.44;100601.28;2318425;68;20290;-79
2021/11/06 03:50:32;;;;;;;6.59;2.60;;;;;;;2.89;92.48;100601.09;2329338;68;20312;-79
2021/11/06 03:53:50;;;;;;;3.08;2.11;;;;;;;2.87;92.72;100609.50;2328231;68;20303;-79
2021/11/06 03:57:05;;;;;;;4.60;2.85;;;;;;;2.87;92.97;100607.84;2327628;68;20288;-79
2021/11/06 04:00:16;;;;;;;4.15;2.99;;;;;;;2.87;93.19;100615.53;2328092;68;20298;-78
2021/11/06 04:03:36;;;;;;;6.84;2.88;;;;;;;2.84;93.12;100617.03;2328383;68;20808;-79
2021/11/06 04:06:44;;;;;;;3.85;2.84;;;;;;;2.79;93.02;100621.97;2315443;68;20332;-79
2021/11/06 04:09:53;;;;;;;3.85;2.36;;;;;;;2.79;93.03;100619.41;2329101;68;20347;-79
2021/11/06 04:12:58;;;;;;;3.35;2.05;;;;;;;2.79;93.04;100618.53;2313910;68;20703;-79
2021/11/06 04:16:05;;;;;;;3.54;2.50;;;;;;;2.76;93.17;100614.16;2300106;68;1315245;-78
2021/11/06 04:19:20;;;;;;;5.64;2.47;;;;;;;2.76;93.17;100613.25;2318830;68;20171;-79
2021/11/06 04:22:28;;;;;;;4.45;2.60;;;;;;;2.73;93.25;100619.13;2314358;68;20367;-78
2021/11/06 04:25:40;;;;;;;3.55;2.65;;;;;;;2.70;93.14;100613.88;2322599;68;20463;-79
2021/11/06 04:28:50;;;;;;;3.51;2.55;;;;;;;2.69;93.21;100617.22;2328136;68;20804;-78
2021/11/06 04:31:56;;;;;;;5.03;3.00;;;;;;;2.67;93.14;100614.56;2311864;68;20313;-79
2021/11/06 04:35:18;;;;;;;7.26;2.67;;;;;;;2.73;93.47;100617.44;2327205;68;20451;-79
2021/11/06 04:38:40;;;;;;;2.92;2.60;;;;;;;2.76;93.67;100619.28;2313785;68;20650;-79
2021/11/06 04:41:57;;;;;;;4.78;2.94;;;;;;;2.79;93.82;100624.53;2313415;68;20286;-79
2021/11/06 04:45:08;;;;;;;4.01;2.85;;;;;;;2.83;94.02;100623.88;2312451;68;20279;-79
2021/11/06 04:48:26;;;;;;;5.59;3.08;;;;;;;2.86;94.01;100628.25;2328173;68;20490;-79
2021/11/06 04:51:34;;;;;;;9.32;3.58;;;;;;;2.90;94.13;100627.59;2325370;68;20318;-78
2021/11/06 04:54:46;;;;;;;5.20;3.38;;;;;;;2.94;94.19;100629.50;2310286;68;20735;-79
2021/11/06 04:57:59;;;;;;;6.97;3.38;;;;;;;2.95;94.29;100629.56;2315360;68;20344;-79
2021/11/06 05:01:18;;;;;;;8.20;4.00;;;;;;;3.01;94.37;100626.38;2303351;68;1371001;-78
2021/11/06 05:04:42;;;;;;;5.47;3.88;;;;;;;3.07;94.41;100628.38;2320530;68;20178;-79
2021/11/06 05:08:04;;;;;;;7.90;3.63;;;;;;;3.09;94.45;100629.31;2324798;68;20535;-79
2021/11/06 05:11:10;;;;;;;8.99;3.49;;;;;;;3.10;94.46;100629.38;2312801;68;20900;-79
2021/11/06 05:14:27;;;;;;;7.22;3.53;;;;;;;3.10;94.45;100634.53;2323510;68;20540;-79
2021/11/06 05:17:52;;;;;;;4.95;3.63;;;;;;;3.10;94.48;100639.66;2327449;68;20306;-79
2021/11/06 05:21:00;;;;;;;7.99;3.86;;;;;;;3.11;94.44;100638.84;2311410;68;20291;-79
2021/11/06 05:24:16;;;;;;;8.49;3.97;;;;;;;3.16;94.67;100642.50;2323412;68;20431;-79
2021/11/06 05:27:21;;;;;;;12.20;4.09;;;;;;;3.21;94.73;100645.25;2312003;68;20303;-79
2021/11/06 05:30:40;;;;;;;12.69;4.21;;;;;;;3.26;94.84;100642.09;2322203;68;20294;-79
2021/11/06 05:33:52;;;;;;;14.85;4.31;;;;;;;3.29;94.89;100647.38;2310901;68;20901;-79
2021/11/06 05:37:19;;;;;;;7.78;3.54;;;;;;;3.30;94.93;100649.13;2325951;68;20291;-78
2021/11/06 05:41:01;;;;;;;20.79;4.07;;;;;;;3.28;94.96;100652.44;2320748;68;20310;-79
2021/11/06 05:44:07;;;;;;;10.68;3.59;;;;;;;3.25;94.94;100648.06;2316163;68;21118;-78
2021/11/06 05:47:24;;;;;;;9.91;3.67;;;;;;;3.28;95.33;100644.75;2324590;68;20383;-79
2021/11/06 05:50:45;;;;;;;11.06;3.54;;;;;;;3.31;95.51;100650.88;2324968;68;20603;-78
2021/11/06 05:53:59;;;;;;;9.76;3.95;;;;;;;3.34;95.65;100651.00;2311251;68;20302;-78
2021/11/06 05:57:09;;;;;;;6.78;3.59;;;;;;;3.36;95.73;100656.22;2315881;68;20962;-79
2021/11/06 06:00:29;;;;;;;8.24;3.06;;;;;;;3.39;95.86;100655.47;2323371;68;20339;-78
2021/11/06 06:04:01;;;;;;;7.49;3.42;;;;;;;3.42;95.88;100663.34;2312589;68;20303;-78
2021/11/06 06:07:06;;;;;;;6.31;3.84;;;;;;;3.39;95.55;100666.59;2326590;68;20761;-78
2021/11/06 06:10:14;;;;;;;8.01;4.09;;;;;;;3.39;95.66;100676.00;2326063;68;20563;-78
2021/11/06 06:13:21;;;;;;;11.18;3.81;;;;;;;3.41;95.74;100667.59;2314472;68;20654;-79
2021/11/06 06:16:25;;;;;;;19.96;4.05;;;;;;;3.42;95.51;100668.47;2328786;68;20727;-79
2021/11/06 06:19:27;;;;;;;22.79;4.25;;;;;;;3.41;95.54;100672.72;2332051;68;20286;-79
2021/11/06 06:22:31;;;;;;;15.05;3.50;;;;;;;3.37;95.47;100675.94;2326998;68;20431;-79
2021/11/06 06:25:34;;;;;;;15.85;3.89;;;;;;;3.34;95.50;100679.25;2327414;68;20398;-78
2021/11/06 06:28:37;;;;;;;7.78;3.85;;;;;;;3.33;95.43;100677.50;2328020;68;20316;-79
2021/11/06 06:31:39;;;;;;;10.94;3.69;;;;;;;3.34;95.55;100679.25;2327317;68;20345;-79
2021/11/06 06:34:43;;;;;;;16.23;3.85;;;;;;;3.31;95.48;100686.81;2323697;68;20314;-78
2021/11/06 06:37:45;;;;;;;10.89;3.69;;;;;;;3.28;95.46;100683.25;2329207;68;20283;-79
2021/11/06 06:40:48;;;;;;;7.89;4.14;;;;;;;3.25;95.54;100683.09;2330042;68;20344;-79
2021/11/06 06:43:51;;;;;;;7.40;4.19;;;;;;;3.25;95.89;100681.41;2326983;68;20360;-79
2021/11/06 06:46:53;;;;;;;11.84;3.78;;;;;;;3.32;96.15;100680.00;2326511;66;26746;-79
2021/11/06 06:49:56;;;;;;;12.34;4.05;;;;;;;3.36;96.18;100684.44;2327282;68;20332;-78
2021/11/06 06:52:59;;;;;;;10.75;4.09;;;;;;;3.40;96.13;100686.34;2327867;68;20283;-79
2021/11/06 06:56:02;;;;;;;9.60;3.53;;;;;;;3.40;95.87;100694.03;2326971;68;20851;-79
2021/11/06 06:59:04;;;;;;;11.93;4.28;;;;;;;3.39;95.85;100701.66;2327831;68;20299;-78
2021/11/06 07:02:07;;;;;;;25.94;4.71;;;;;;;3.40;95.92;100693.16;2326150;66;24636;-78
2021/11/06 07:05:11;;;;;;;6.79;4.35;;;;;;;3.42;95.99;100695.00;2328104;68;20553;-78
2021/11/06 07:08:13;;;;;;;6.30;4.71;;;;;;;3.47;96.13;100688.38;2327135;68;20309;-78
2021/11/06 07:11:17;;;;;;;20.31;4.59;;;;;;;3.56;96.25;100693.91;2323714;68;20353;-78
2021/11/06 07:14:21;;;;;;;7.78;4.64;;;;;;;3.58;95.85;100705.13;2326674;68;20304;-78
2021/11/06 07:17:23;;;;;;;24.59;4.26;;;;;;;3.57;95.85;100694.78;2324447;66;20652;-77
2021/11/06 07:20:26;;;;;;;15.01;4.34;;;;;;;3.60;95.92;100697.53;2329032;68;20312;-77
2021/11/06 07:23:29;;;;;;;11.82;4.88;;;;;;;3.59;95.87;100698.31;2325588;68;20303;-79
2021/11/06 07:26:33;;;;;;;10.98;5.28;;;;;;;3.64;96.11;100700.28;2326776;68;21470;-77
2021/11/06 07:29:37;;;;;;;55.47;5.75;;;;;;;3.68;96.06;100710.69;2326622;68;20267;-78
2021/11/06 07:32:40;;;;;;;19.85;6.78;;;;;;;3.68;95.79;100723.53;2324631;66;23481;-78
2021/11/06 07:35:43;;;;;;;17.55;6.32;;;;;;;3.68;95.81;100720.97;2328350;68;20334;-78
2021/11/06 07:38:46;;;;;;;11.39;6.14;;;;;;;3.71;95.89;100716.84;2328503;68;21006;-78
2021/11/06 07:41:48;;;;;;;13.44;6.26;;;;;;;3.77;95.90;100718.78;2326228;68;20303;-78
2021/11/06 07:44:51;;;;;;;12.45;6.03;;;;;;;3.86;96.04;100720.09;2325094;68;20318;-78
2021/11/06 07:47:54;;;;;;;12.43;6.46;;;;;;;4.00;96.17;100724.97;2324856;66;22303;-78
2021/11/06 07:50:57;;;;;;;15.66;5.95;;;;;;;4.12;96.14;100726.34;2322562;68;20319;-78
2021/11/06 07:53:59;;;;;;;9.59;6.16;;;;;;;4.25;96.06;100732.88;2326678;68;20320;-78
2021/11/06 07:57:02;;;;;;;7.31;5.81;;;;;;;4.37;95.95;100727.41;2326419;68;20303;-78
2021/11/06 08:00:10;;;;;;;33.35;6.70;;;;;;;4.46;95.62;100730.31;2321301;68;20304;-79
2021/11/06 08:03:13;;;;;;;25.90;6.35;;;;;;;4.47;95.18;100730.38;2323241;66;21485;-79
2021/11/06 08:06:18;;;;;;;32.42;5.85;;;;;;;4.42;94.70;100721.63;2324450;68;20358;-77
2021/11/06 08:09:21;;;;;;;10.43;5.59;;;;;;;4.37;94.73;100724.81;2328209;68;20800;-77
2021/11/06 08:12:23;;;;;;;12.29;4.88;;;;;;;4.35;94.83;100732.47;2323609;68;20323;-77
2021/11/06 08:15:26;;;;;;;8.02;5.06;;;;;;;4.41;95.00;100743.00;2323670;66;28667;-77
2021/11/06 08:18:29;;;;;;;7.20;4.95;;;;;;;4.48;95.17;100733.84;2323479;68;20382;-77
2021/11/06 08:21:32;;;;;;;6.75;5.03;;;;;;;4.60;95.25;100739.50;2323999;68;20302;-77
2021/11/06 08:24:34;;;;;;;9.14;5.63;;;;;;;4.66;95.13;100744.00;2323481;68;20295;-78
2021/11/06 08:27:37;;;;;;;7.66;5.20;;;;;;;4.75;95.24;100747.84;2325435;68;20305;-78
2021/11/06 08:30:40;;;;;;;27.73;6.18;;;;;;;4.83;95.20;100751.59;2322712;66;23442;-78
2021/11/06 08:33:43;;;;;;;10.39;5.11;;;;;;;4.87;95.08;100752.63;2324623;68;20326;-78
2021/11/06 08:36:45;;;;;;;13.80;5.56;;;;;;;4.93;95.23;100752.84;2325785;68;20291;-80
2021/11/06 08:39:48;;;;;;;9.23;5.09;;;;;;;4.98;95.03;100748.75;2327216;68;20732;-78
2021/11/06 08:42:52;;;;;;;10.18;5.97;;;;;;;5.02;94.99;100755.78;2326832;68;20363;-78
2021/11/06 08:45:55;;;;;;;15.52;6.32;;;;;;;5.09;95.09;100747.50;2324656;66;22977;-79
2021/11/06 08:48:58;;;;;;;11.89;7.07;;;;;;;5.22;95.11;100758.28;2325498;68;20785;-79
2021/11/06 08:52:00;;;;;;;10.88;6.91;;;;;;;5.33;95.18;100765.59;2327902;68;20315;-79
2021/11/06 08:55:05;;;;;;;16.65;8.66;;;;;;;5.49;95.30;100759.34;2325525;68;20326;-78
2021/11/06 08:58:08;;;;;;;16.76;9.76;;;;;;;5.63;95.07;100755.59;2330898;68;20299;-79
2021/11/06 09:01:11;;;;;;;16.36;9.01;;;;;;;5.74;94.91;100754.28;2324224;66;23951;-79
2021/11/06 09:04:14;;;;;;;24.60;9.49;;;;;;;5.84;94.68;100739.16;2327630;68;20315;-79
2021/11/06 09:07:17;;;;;;;20.20;9.98;;;;;;;5.92;94.32;100750.63;2330465;68;20416;-79
2021/11/06 09:10:20;;;;;;;18.17;9.73;;;;;;;5.98;94.23;100745.72;2326951;68;20283;-79
2021/11/06 09:13:24;;;;;;;19.08;9.93;;;;;;;6.08;94.17;100740.03;2322570;68;20317;-79
2021/11/06 09:16:34;;;;;;;19.99;9.89;;;;;;;6.15;93.97;100733.44;2324944;66;25315;-79
2021/11/06 09:19:36;;;;;;;19.95;10.44;;;;;;;6.19;93.67;100732.69;2326844;68;20282;-80
2021/11/06 09:22:39;;;;;;;16.81;10.15;;;;;;;6.21;93.48;100739.66;2327669;68;20763;-79
2021/11/06 09:25:42;;;;;;;25.52;17.52;;;;;;;6.26;93.41;100743.25;2329509;68;20711;-79
2021/11/06 09:28:47;;;;;;;32.96;16.23;;;;;;;6.31;93.31;100744.31;2326513;68;20463;-79
2021/11/06 09:31:50;;;;;;;19.50;10.71;;;;;;;6.39;92.92;100754.91;2321044;66;23250;-79
2021/11/06 09:34:52;;;;;;;18.46;9.79;;;;;;;6.34;92.21;100754.75;2325741;68;20418;-79
2021/11/06 09:37:55;;;;;;;26.80;9.82;;;;;;;6.30;91.77;100755.47;2327543;68;20291;-79
2021/11/06 09:41:05;;;;;;;14.06;8.06;;;;;;;6.28;91.63;100753.63;2328128;68;20295;-79
2021/11/06 09:44:10;;;;;;;15.04;8.80;;;;;;;6.30;91.88;100759.75;2328001;68;20291;-79
2021/11/06 09:47:12;;;;;;;13.09;8.88;;;;;;;6.34;91.72;100747.00;2320264;66;20763;-79
2021/11/06 09:50:18;;;;;;;13.68;9.02;;;;;;;6.39;91.56;100752.31;2327852;68;20295;-79
2021/11/06 09:53:22;;;;;;;13.38;8.51;;;;;;;6.38;91.32;100757.41;2327353;68;20298;-79
2021/11/06 09:56:29;;;;;;;13.11;8.38;;;;;;;6.50;91.94;100751.00;2327894;68;20323;-79
2021/11/06 09:59:32;;;;;;;21.59;9.24;;;;;;;6.60;91.67;100747.88;2328223;68;20614;-79
2021/11/06 10:02:36;;;;;;;15.51;9.16;;;;;;;6.60;91.26;100752.16;2303708;68;720223;-79
2021/11/06 10:05:57;;;;;;;13.45;8.49;;;;;;;6.58;91.08;100751.22;2321146;68;20189;-79
2021/11/06 10:09:07;;;;;;;13.07;8.49;;;;;;;6.66;91.35;100748.09;2327638;68;20287;-79
2021/11/06 10:12:12;;;;;;;12.57;8.51;;;;;;;6.67;90.76;100754.13;2327774;68;20316;-79
2021/11/06 10:15:21;;;;;;;14.20;8.81;;;;;;;6.75;90.92;100749.22;2326718;68;20299;-79
2021/11/06 10:18:25;;;;;;;;;;;;;;;6.82;90.88;100744.31;2321281;68;20317;-79
2021/11/06 10:21:34;;;;;;;12.91;8.09;;;;;;;6.88;90.57;100752.25;2328201;68;20498;-79
2021/11/06 10:24:42;;;;;;;11.55;8.19;;;;;;;6.92;90.46;100748.06;2317124;68;20298;-79
2021/11/06 10:27:57;;;;;;;15.64;9.52;;;;;;;6.94;90.24;100751.56;2320951;68;20227;-79
2021/11/06 10:31:03;;;;;;;13.16;7.86;;;;;;;7.05;90.44;100737.28;2325503;66;29403;-79
2021/11/06 10:34:17;;;;;;;14.17;8.60;;;;;;;7.13;90.46;100732.34;2328209;68;20630;-79
2021/11/06 10:37:24;;;;;;;14.39;8.50;;;;;;;7.24;90.45;100726.69;2326785;68;20283;-79
2021/11/06 10:40:31;;;;;;;14.10;8.39;;;;;;;7.28;90.20;100728.53;2327147;68;20322;-79
2021/11/06 10:43:38;;;;;;;13.49;8.40;;;;;;;7.41;90.31;100721.16;2326629;68;20619;-79
2021/11/06 10:46:55;;;;;;;12.15;8.20;;;;;;;7.53;90.23;100729.25;2325564;66;45933;-79
2021/11/06 10:50:07;;;;;;;11.49;7.60;;;;;;;7.60;89.83;100723.44;2325501;68;20295;-79
2021/11/06 10:53:12;;;;;;;12.29;8.21;;;;;;;7.66;89.67;100725.31;2321505;68;20283;-79
2021/11/06 10:56:14;;;;;;;10.56;7.76;;;;;;;7.70;89.27;100722.84;2311539;68;20294;-78
2021/11/06 10:59:21;;;;;;;9.45;7.38;;;;;;;7.76;89.14;100720.47;2311062;68;20271;-79
2021/11/06 11:02:29;;;;;;;11.55;7.26;;;;;;;7.87;89.05;100713.00;2323598;66;25530;-79
2021/11/06 11:05:35;;;;;;;12.44;6.97;;;;;;;7.93;88.48;100714.91;2325839;68;20303;-79
2021/11/06 11:08:57;;;;;;;10.10;6.75;;;;;;;8.00;88.18;100707.31;2311366;68;21174;-79
2021/11/06 11:12:02;;;;;;;8.24;6.61;;;;;;;8.04;87.63;100697.94;2326328;68;20303;-78
2021/11/06 11:15:04;;;;;;;7.35;5.59;;;;;;;8.02;87.02;100694.44;2324433;68;20891;-79
2021/11/06 11:18:08;;;;;;;7.51;5.57;;;;;;;8.07;87.10;100692.84;2325583;66;23856;-79
2021/11/06 11:21:25;;;;;;;9.84;6.64;;;;;;;8.11;86.85;100690.41;2309924;68;20626;-78
2021/11/06 11:24:28;;;;;;;7.82;5.75;;;;;;;8.10;86.34;100691.22;2323463;68;20303;-79
2021/11/06 11:27:31;;;;;;;7.74;5.69;;;;;;;8.18;86.49;100681.94;2327924;68;20299;-80
2021/11/06 11:30:34;;;;;;;6.25;5.16;;;;;;;8.11;86.15;100682.63;2320000;66;23847;-79
2021/11/06 11:33:41;;;;;;;6.80;5.47;;;;;;;8.13;86.00;100680.97;2310917;68;20315;-79
2021/11/06 11:36:45;;;;;;;6.35;4.94;;;;;;;8.21;86.12;100682.84;2326016;68;20348;-79
2021/11/06 11:39:49;;;;;;;6.56;4.96;;;;;;;8.18;85.68;100673.31;2314787;68;20327;-80
2021/11/06 11:43:08;;;;;;;7.25;5.75;;;;;;;8.27;85.71;100668.38;2324977;68;20320;-79
2021/11/06 11:46:17;;;;;;;4.99;4.49;;;;;;;8.43;85.77;100665.34;2323321;66;33415;-79
2021/11/06 11:49:27;;;;;;;4.38;4.01;;;;;;;8.49;84.70;100662.06;2326975;68;20147;-78
2021/11/06 11:52:32;;;;;;;7.10;5.06;;;;;;;8.56;84.67;100660.47;2325171;68;20155;-79
2021/11/06 11:55:44;;;;;;;6.41;4.86;;;;;;;8.69;84.90;100662.53;2325126;68;20317;-79
2021/11/06 11:58:48;;;;;;;4.66;4.26;;;;;;;8.92;84.85;100660.47;2326912;68;20360;-78
2021/11/06 12:02:17;;;;;;;5.69;5.03;;;;;;;9.13;84.11;100655.75;2324212;66;25521;-80
2021/11/06 12:05:23;;;;;;;4.84;4.37;;;;;;;9.26;83.63;100654.31;2325166;68;21105;-78
2021/11/06 12:08:33;;;;;;;4.76;4.35;;;;;;;9.41;83.68;100646.84;2325042;68;20167;-78
2021/11/06 12:11:43;;;;;;;5.07;4.35;;;;;;;9.73;83.40;100638.84;2324545;68;20176;-79
2021/11/06 12:14:51;;;;;;;5.51;5.01;;;;;;;9.91;82.10;100636.59;2327371;68;20171;-78
2021/11/06 12:17:54;;;;;;;5.03;3.83;;;;;;;10.09;81.13;100634.31;2310259;68;21140;-79
2021/11/06 12:21:18;;;;;;;4.54;4.00;;;;;;;10.23;80.03;100635.47;2325111;68;20151;-79
2021/11/06 12:24:23;;;;;;;5.20;4.70;;;;;;;10.21;78.47;100631.94;2319684;68;20150;-79
2021/11/06 12:27:37;;;;;;;7.75;4.24;;;;;;;10.30;78.37;100623.47;2320394;68;20155;-79
2021/11/06 12:30:40;;;;;;;4.68;3.76;;;;;;;10.32;78.11;100616.56;2326413;68;20139;-79
2021/11/06 12:33:45;;;;;;;5.32;4.82;;;;;;;10.36;77.78;100604.50;2325739;68;20755;-78
2021/11/06 12:36:48;;;;;;;4.85;4.40;;;;;;;10.40;77.38;100608.88;2326184;68;20158;-79
2021/11/06 12:39:54;;;;;;;6.84;5.11;;;;;;;10.44;77.31;100608.09;2326984;68;20227;-78
2021/11/06 12:43:05;;;;;;;5.50;5.00;;;;;;;10.44;76.76;100601.19;2331405;68;20883;-79
2021/11/06 12:46:24;;;;;;;7.24;6.34;;;;;;;10.45;76.58;100607.25;2322481;66;36496;-78
2021/11/06 12:49:27;;;;;;;7.24;5.66;;;;;;;10.45;75.55;100604.66;2323922;68;20251;-78
2021/11/06 12:52:40;;;;;;;8.31;6.66;;;;;;;10.25;75.78;100607.81;2319171;68;20515;-78
2021/11/06 12:55:42;;;;;;;8.15;6.89;;;;;;;10.20;76.40;100609.41;2325203;68;20894;-78
2021/11/06 12:59:04;;;;;;;9.80;7.06;;;;;;;10.23;76.89;100601.72;2329457;68;20151;-79
2021/11/06 13:02:07;;;;;;;8.14;6.78;;;;;;;10.22;76.66;100593.88;2312322;66;40872;-79
2021/11/06 13:05:09;;;;;;;8.15;6.86;;;;;;;10.21;76.52;100602.53;2322373;68;20179;-79
2021/11/06 13:08:19;;;;;;;8.07;7.01;;;;;;;10.13;76.30;100593.72;2314297;68;20152;-78
2021/11/06 13:11:22;;;;;;;9.75;7.66;;;;;;;10.11;76.56;100587.63;2326584;68;20175;-78
2021/11/06 13:14:39;;;;;;;10.43;7.38;;;;;;;10.09;76.69;100581.56;2322470;68;20172;-79
2021/11/06 13:17:43;;;;;;;8.04;6.39;;;;;;;10.03;77.20;100584.88;2321189;68;20913;-79
2021/11/06 13:20:49;;;;;;;8.74;6.72;;;;;;;10.03;77.42;100577.09;2322082;68;20710;-78
2021/11/06 13:23:55;;;;;;;8.76;6.39;;;;;;;10.03;77.80;100574.50;2312750;68;20222;-78
2021/11/06 13:26:59;;;;;;;8.69;5.74;;;;;;;9.96;77.30;100567.50;2324461;68;20210;-78
2021/11/06 13:30:28;;;;;;;6.04;5.44;;;;;;;9.90;77.56;100564.78;2319302;68;20635;-78
2021/11/06 13:33:31;;;;;;;8.09;5.61;;;;;;;9.81;77.58;100570.69;2326271;68;20178;-78
2021/11/06 13:36:36;;;;;;;6.44;5.04;;;;;;;9.75;77.66;100557.63;2326277;68;20151;-78
2021/11/06 13:39:38;;;;;;;6.19;5.38;;;;;;;9.71;78.10;100566.19;2319962;68;21034;-78
2021/11/06 13:42:41;;;;;;;5.39;4.89;;;;;;;9.44;77.49;100563.09;2319747;68;20161;-78
2021/11/06 13:46:25;;;;;;;7.34;5.63;;;;;;;9.24;78.31;100555.81;2322440;66;24341;-78
2021/11/06 13:49:34;;;;;;;5.13;4.71;;;;;;;9.22;79.36;100556.63;2321189;68;20176;-78
2021/11/06 13:52:39;;;;;;;;;;;;;;;9.25;79.74;100547.19;2330005;68;20160;-78
2021/11/06 13:55:55;;;;;;;5.94;4.93;;;;;;;9.27;79.97;100535.13;2325022;68;20064;-77
2021/11/06 13:58:59;;;;;;;5.60;4.96;;;;;;;9.28;79.96;100542.03;2325279;68;20167;-78
2021/11/06 14:02:05;;;;;;;6.84;5.24;;;;;;;9.30;80.17;100534.31;2325476;66;20914;-77
2021/11/06 14:05:21;;;;;;;12.82;5.53;;;;;;;9.27;80.06;100529.06;2326095;68;20159;-78
2021/11/06 14:08:24;;;;;;;6.39;5.15;;;;;;;9.24;79.97;100524.69;2328211;68;20748;-77
2021/11/06 14:11:27;;;;;;;7.26;5.94;;;;;;;9.22;80.12;100525.53;2311145;69;20159;-78
2021/11/06 14:14:53;;;;;;;7.84;6.10;;;;;;;9.16;79.95;100526.28;2320726;68;20422;-77
2021/11/06 14:18:03;;;;;;;8.82;5.72;;;;;;;9.12;80.13;100516.69;2313824;67;23215;-77
2021/11/06 14:21:17;;;;;;;8.04;6.49;;;;;;;9.08;80.35;100520.94;2320608;69;20283;-77
2021/11/06 14:24:22;;;;;;;5.96;5.25;;;;;;;9.00;80.30;100511.28;2319937;68;20320;-77
2021/11/06 14:27:26;;;;;;;8.20;6.04;;;;;;;8.94;80.75;100511.13;2325468;68;20169;-78
2021/11/06 14:30:29;;;;;;;8.24;6.21;;;;;;;8.92;81.12;100508.53;2319344;66;21616;-77
2021/11/06 14:33:36;;;;;;;8.73;6.29;;;;;;;8.82;81.27;100501.41;2322047;68;20495;-79
2021/11/06 14:36:52;;;;;;;8.36;5.95;;;;;;;8.81;81.50;100491.91;2307469;69;20356;-78
2021/11/06 14:40:00;;;;;;;6.30;5.69;;;;;;;8.76;81.47;100488.31;2315028;69;20160;-78